Time;durP1;ratioP1;P1;durP2;ratioP2;P2;SDS_P1;SDS_P2;PMS_P1;PMS_P2;Temp;Humidity;BMP_temperature;BMP_pressure;BME280_temperature;BME280_humidity;BME280_pressure;Samples;Min_cycle;Max_cycle;Signal;HPM_P1;HPM_P2
2022/06/10 00:01:06;;;;;;;9.73;5.40;;;;;;;;;;5034681;28;20022;-53
2022/06/10 00:03:32;;;;;;;7.75;5.68;;;;;;;;;;5034603;28;20477;-51
2022/06/10 00:06:00;;;;;;;6.70;5.85;;;;;;;;;;5034823;28;20117;-50
2022/06/10 00:08:29;;;;;;;7.32;5.90;;;;;;;;;;5034792;28;20075;-46
2022/06/10 00:10:56;;;;;;;6.80;6.00;;;;;;;;;;5034493;28;20569;-58
2022/06/10 00:13:25;;;;;;;6.65;5.65;;;;;;;;;;5034645;28;20064;-58
2022/06/10 00:15:53;;;;;;;11.05;6.05;;;;;;;;;;5034594;28;20036;-56
2022/06/10 00:18:19;;;;;;;6.28;5.07;;;;;;;;;;5034201;28;20032;-57
2022/06/10 00:20:45;;;;;;;7.40;5.75;;;;;;;;;;5034285;28;20112;-46
2022/06/10 00:23:11;;;;;;;8.55;6.40;;;;;;;;;;5034577;28;20060;-46
2022/06/10 00:25:37;;;;;;;7.82;5.65;;;;;;;;;;5034210;28;20385;-49
2022/06/10 00:28:04;;;;;;;7.78;6.20;;;;;;;;;;5034408;28;20033;-54
2022/06/10 00:30:29;;;;;;;10.95;6.53;;;;;;;;;;5034399;28;20064;-63
2022/06/10 00:32:59;;;;;;;6.18;5.45;;;;;;;;;;5034364;28;20511;-59
2022/06/10 00:35:26;;;;;;;7.43;5.95;;;;;;;;;;5033974;28;20083;-58
2022/06/10 00:37:52;;;;;;;9.63;6.05;;;;;;;;;;5034019;28;20041;-62
2022/06/10 00:40:26;;;;;;;8.00;6.10;;;;;;;;;;5033931;28;20041;-63
2022/06/10 00:42:56;;;;;;;7.63;5.82;;;;;;;;;;5033883;28;20025;-61
2022/06/10 00:45:49;;;;;;;6.63;5.65;;;;;;;;;;5034088;28;20053;-58
2022/06/10 00:48:19;;;;;;;8.88;5.85;;;;;;;;;;5033815;28;20381;-62
2022/06/10 00:50:47;;;;;;;9.15;5.90;;;;;;;;;;5033998;28;20028;-62
2022/06/10 00:53:16;;;;;;;9.15;6.22;;;;;;;;;;5033955;28;20017;-60
2022/06/10 00:55:43;;;;;;;7.63;5.93;;;;;;;;;;5033605;28;20462;-63
2022/06/10 00:58:18;;;;;;;8.43;6.30;;;;;;;;;;5033575;28;20064;-58
2022/06/10 01:00:44;;;;;;;8.00;6.60;;;;;;;;;;5018257;28;20389;-53
2022/06/10 01:03:09;;;;;;;10.85;7.25;;;;;;;;;;5036350;28;20026;-62
2022/06/10 01:05:35;;;;;;;8.40;6.70;;;;;;;;;;5034064;28;20043;-61
2022/06/10 01:08:09;;;;;;;8.98;6.72;;;;;;;;;;5033410;28;20112;-61
2022/06/10 01:10:45;;;;;;;8.07;6.60;;;;;;;;;;5033388;28;20034;-61
2022/06/10 01:13:22;;;;;;;9.80;5.63;;;;;;;;;;5033589;28;20025;-57
2022/06/10 01:16:08;;;;;;;6.82;6.00;;;;;;;;;;5033536;28;20022;-62
2022/06/10 01:19:01;;;;;;;7.55;6.03;;;;;;;;;;5033403;28;20029;-60
2022/06/10 01:21:55;;;;;;;6.97;6.25;;;;;;;;;;5033420;28;20108;-56
2022/06/10 01:24:55;;;;;;;9.00;5.65;;;;;;;;;;5033369;28;20438;-61
2022/06/10 01:27:48;;;;;;;6.50;5.32;;;;;;;;;;5033118;28;20029;-60
2022/06/10 01:30:52;;;;;;;5.80;5.20;;;;;;;;;;5033292;28;20064;-54
2022/06/10 01:33:41;;;;;;;7.85;5.22;;;;;;;;;;4995331;28;20401;-58
2022/06/10 01:36:15;;;;;;;6.90;5.70;;;;;;;;;;4986676;28;20064;-61
2022/06/10 01:38:56;;;;;;;8.20;5.57;;;;;;;;;;5032794;28;20473;-62
2022/06/10 01:41:21;;;;;;;7.95;6.07;;;;;;;;;;5032756;28;20081;-61
2022/06/10 01:44:12;;;;;;;7.35;5.82;;;;;;;;;;5032767;28;20056;-61
2022/06/10 01:46:39;;;;;;;;;;;;;;;;;;5015517;28;20029;-60
2022/06/10 01:49:26;;;;;;;8.32;5.20;;;;;;;;;;5032704;28;20364;-57
2022/06/10 01:52:00;;;;;;;9.80;5.85;;;;;;;;;;5032752;28;20436;-59
2022/06/10 01:54:32;;;;;;;7.57;5.50;;;;;;;;;;5032879;28;20086;-62
2022/06/10 01:57:01;;;;;;;10.82;6.75;;;;;;;;;;5032856;28;20080;-56
2022/06/10 01:59:37;;;;;;;8.15;6.00;;;;;;;;;;5032406;28;20469;-55
2022/06/10 02:02:09;;;;;;;9.55;5.72;;;;;;;;;;5032789;28;20041;-54
2022/06/10 02:04:45;;;;;;;9.23;5.55;;;;;;;;;;5032779;28;20026;-52
2022/06/10 02:07:30;;;;;;;7.32;5.70;;;;;;;;;;5032783;28;20029;-61
2022/06/10 02:10:03;;;;;;;10.77;6.07;;;;;;;;;;5032722;28;20368;-61
2022/06/10 02:12:36;;;;;;;8.80;5.78;;;;;;;;;;5015520;28;20116;-60
2022/06/10 02:15:13;;;;;;;7.50;6.00;;;;;;;;;;5032734;28;20022;-62
2022/06/10 02:17:44;;;;;;;9.45;6.90;;;;;;;;;;5032664;28;20093;-59
2022/06/10 02:20:16;;;;;;;7.95;7.05;;;;;;;;;;5032308;28;20029;-60
2022/06/10 02:22:45;;;;;;;10.35;7.18;;;;;;;;;;5032706;28;20026;-55
2022/06/10 02:25:23;;;;;;;8.68;7.38;;;;;;;;;;5032603;28;20072;-52
2022/06/10 02:27:53;;;;;;;9.48;7.55;;;;;;;;;;5032891;28;20049;-53
2022/06/10 02:30:24;;;;;;;12.13;8.13;;;;;;;;;;5032819;28;20017;-57
2022/06/10 02:32:50;;;;;;;10.05;7.50;;;;;;;;;;5032309;28;20473;-58
2022/06/10 02:35:17;;;;;;;12.43;7.38;;;;;;;;;;5014660;28;20164;-48
2022/06/10 02:37:57;;;;;;;9.88;7.55;;;;;;;;;;5032479;28;20030;-56
2022/06/10 02:40:35;;;;;;;11.32;8.35;;;;;;;;;;5032019;28;20033;-53
2022/06/10 02:43:17;;;;;;;9.35;8.35;;;;;;;;;;5032409;28;20120;-53
2022/06/10 02:46:06;;;;;;;10.73;9.27;;;;;;;;;;5032124;28;20492;-55
2022/06/10 02:48:54;;;;;;;10.15;8.50;;;;;;;;;;5032422;28;20409;-57
2022/06/10 02:51:20;;;;;;;11.00;9.52;;;;;;;;;;5014712;28;20033;-57
2022/06/10 02:53:46;;;;;;;12.10;9.48;;;;;;;;;;5032030;28;20503;-53
2022/06/10 02:56:21;;;;;;;12.27;9.60;;;;;;;;;;5014438;28;20033;-58
2022/06/10 03:01:47;;;;;;;14.98;9.60;;;;;;;;;;5033508;28;20091;-54
2022/06/10 03:04:15;;;;;;;17.23;9.55;;;;;;;;;;5036363;28;20032;-55
2022/06/10 03:06:57;;;;;;;12.18;9.40;;;;;;;;;;5035957;28;20045;-55
2022/06/10 03:09:31;;;;;;;14.05;9.63;;;;;;;;;;5035633;28;20037;-54
2022/06/10 03:12:38;;;;;;;13.63;10.00;;;;;;;;;;5035939;28;20033;-54
2022/06/10 03:15:15;;;;;;;11.27;9.43;;;;;;;;;;5035846;28;20057;-56
2022/06/10 03:17:49;;;;;;;11.35;9.80;;;;;;;;;;5035764;28;20037;-55
2022/06/10 03:20:21;;;;;;;21.52;10.30;;;;;;;;;;5035381;28;20366;-55
2022/06/10 03:23:10;;;;;;;13.60;10.10;;;;;;;;;;5035306;28;20488;-54
2022/06/10 03:25:55;;;;;;;9.98;8.98;;;;;;;;;;5035341;28;20087;-57
2022/06/10 03:28:28;;;;;;;10.70;9.60;;;;;;;;;;5034600;28;20044;-54
2022/06/10 03:31:09;;;;;;;12.32;8.90;;;;;;;;;;5035554;28;20021;-55
2022/06/10 03:33:55;;;;;;;10.68;9.50;;;;;;;;;;5035194;28;20495;-58
2022/06/10 03:36:23;;;;;;;12.55;9.32;;;;;;;;;;5035398;28;20104;-57
2022/06/10 03:38:51;;;;;;;10.30;9.20;;;;;;;;;;5034959;28;20503;-57
2022/06/10 03:41:32;;;;;;;11.68;9.23;;;;;;;;;;5034906;28;20509;-58
2022/06/10 03:44:01;;;;;;;12.38;9.98;;;;;;;;;;5035324;28;20076;-54
2022/06/10 03:46:30;;;;;;;11.93;9.05;;;;;;;;;;5034866;28;20029;-55
2022/06/10 03:48:57;;;;;;;11.07;8.90;;;;;;;;;;5035189;28;20049;-57
2022/06/10 03:51:22;;;;;;;13.73;9.82;;;;;;;;;;5034816;28;20112;-61
2022/06/10 03:53:48;;;;;;;14.60;9.60;;;;;;;;;;5035091;28;20117;-53
2022/06/10 03:56:20;;;;;;;11.50;9.15;;;;;;;;;;5035048;28;20388;-52
2022/06/10 03:58:46;;;;;;;17.55;12.63;;;;;;;;;;5034896;28;20034;-56
2022/06/10 04:01:11;;;;;;;11.57;9.15;;;;;;;;;;5034703;28;20040;-57
2022/06/10 04:03:37;;;;;;;12.18;9.63;;;;;;;;;;5017183;28;20021;-57
2022/06/10 04:06:02;;;;;;;9.98;8.98;;;;;;;;;;5034582;28;20079;-53
2022/06/10 04:08:28;;;;;;;11.98;8.68;;;;;;;;;;5034818;28;20034;-49
2022/06/10 04:10:53;;;;;;;8.43;7.60;;;;;;;;;;5034699;28;20029;-59
2022/06/10 04:13:20;;;;;;;8.48;7.13;;;;;;;;;;5016204;28;20031;-55
2022/06/10 04:15:45;;;;;;;8.32;7.10;;;;;;;;;;5034676;28;20096;-50
2022/06/10 04:18:11;;;;;;;9.60;6.80;;;;;;;;;;5017025;28;20477;-61
2022/06/10 04:20:38;;;;;;;8.25;6.85;;;;;;;;;;5034529;28;20488;-55
2022/06/10 04:23:04;;;;;;;12.65;8.93;;;;;;;;;;5034578;28;20030;-51
2022/06/10 04:25:32;;;;;;;10.95;7.50;;;;;;;;;;5034506;28;20029;-52
2022/06/10 04:27:58;;;;;;;13.65;8.40;;;;;;;;;;5034436;28;20104;-57
2022/06/10 04:30:26;;;;;;;16.00;7.75;;;;;;;;;;5034373;28;20040;-58
2022/06/10 04:32:52;;;;;;;16.48;8.18;;;;;;;;;;5034040;28;20026;-52
2022/06/10 04:35:18;;;;;;;14.05;8.00;;;;;;;;;;5034080;28;20101;-59
2022/06/10 04:37:45;;;;;;;15.07;8.65;;;;;;;;;;5033973;28;20112;-58
2022/06/10 04:40:18;;;;;;;14.95;9.05;;;;;;;;;;5033890;28;20080;-59
2022/06/10 04:42:45;;;;;;;12.18;7.07;;;;;;;;;;5016080;28;20049;-56
2022/06/10 04:45:10;;;;;;;8.52;5.63;;;;;;;;;;5034123;28;20025;-53
2022/06/10 04:47:36;;;;;;;13.57;8.65;;;;;;;;;;5033714;28;20358;-58
2022/06/10 04:50:03;;;;;;;12.43;8.02;;;;;;;;;;5033731;28;20083;-54
2022/06/10 04:52:28;;;;;;;14.25;7.63;;;;;;;;;;5033547;28;20549;-56
2022/06/10 04:54:54;;;;;;;9.25;6.57;;;;;;;;;;5033891;28;20112;-57
2022/06/10 04:57:20;;;;;;;10.85;5.90;;;;;;;;;;5033518;28;20500;-54
2022/06/10 04:59:46;;;;;;;9.13;4.85;;;;;;;;;;5033474;28;20029;-50
2022/06/10 05:02:12;;;;;;;8.45;5.15;;;;;;;;;;5033744;28;20036;-52
2022/06/10 05:04:38;;;;;;;5.85;4.45;;;;;;;;;;5033715;28;20488;-52
2022/06/10 05:07:03;;;;;;;5.10;3.97;;;;;;;;;;5033438;28;20021;-49
2022/06/10 05:09:29;;;;;;;5.18;4.65;;;;;;;;;;5033270;28;20440;-54
2022/06/10 05:11:54;;;;;;;7.75;4.55;;;;;;;;;;5033216;28;20029;-53
2022/06/10 05:14:20;;;;;;;8.95;4.68;;;;;;;;;;5033281;28;20033;-57
2022/06/10 05:16:47;;;;;;;6.53;4.93;;;;;;;;;;5033012;28;20061;-60
2022/06/10 05:19:12;;;;;;;5.90;4.32;;;;;;;;;;5033391;28;20072;-52
2022/06/10 05:21:38;;;;;;;9.15;5.30;;;;;;;;;;5033047;28;20049;-55
2022/06/10 05:24:03;;;;;;;6.30;4.30;;;;;;;;;;5031613;28;20030;-51
2022/06/10 05:26:29;;;;;;;13.13;5.85;;;;;;;;;;5030430;28;20116;-51
2022/06/10 05:28:57;;;;;;;12.23;5.80;;;;;;;;;;5031414;28;20033;-60
2022/06/10 05:31:23;;;;;;;7.32;4.68;;;;;;;;;;5031368;28;20033;-50
2022/06/10 05:36:33;;;;;;;9.73;5.60;;;;;;;;;;5031088;28;20091;-51
2022/06/10 05:38:58;;;;;;;6.65;4.97;;;;;;;;;;5031671;28;20025;-52
2022/06/10 05:44:09;;;;;;;11.13;5.50;;;;;;;;;;5031956;28;20508;-56
2022/06/10 05:46:35;;;;;;;8.50;5.50;;;;;;;;;;5031504;28;20040;-45
2022/06/10 05:49:01;;;;;;;8.70;5.80;;;;;;;;;;5031297;28;20033;-53
2022/06/10 05:51:27;;;;;;;7.22;5.47;;;;;;;;;;5031786;28;20377;-48
2022/06/10 05:53:52;;;;;;;6.47;4.53;;;;;;;;;;5032564;28;20025;-51
2022/06/10 05:56:18;;;;;;;11.27;6.50;;;;;;;;;;5032381;28;20091;-51
2022/06/10 05:58:43;;;;;;;8.20;3.78;;;;;;;;;;5032706;28;20439;-50
2022/06/10 06:01:08;;;;;;;11.70;3.83;;;;;;;;;;5032818;28;20022;-47
2022/06/10 06:03:34;;;;;;;5.72;3.90;;;;;;;;;;5032713;28;20083;-49
2022/06/10 06:06:00;;;;;;;5.43;4.43;;;;;;;;;;5032718;28;20441;-47
2022/06/10 06:08:25;;;;;;;9.52;5.30;;;;;;;;;;5032735;28;20028;-50
2022/06/10 06:10:51;;;;;;;3.55;3.25;;;;;;;;;;5032628;28;20448;-47
2022/06/10 06:13:17;;;;;;;9.85;6.32;;;;;;;;;;5032129;28;20492;-47
2022/06/10 06:15:43;;;;;;;12.68;5.82;;;;;;;;;;5031899;28;20021;-49
2022/06/10 06:18:09;;;;;;;4.43;3.67;;;;;;;;;;5031587;28;20032;-58
2022/06/10 06:20:35;;;;;;;4.97;3.15;;;;;;;;;;5031029;28;20183;-55
2022/06/10 06:23:00;;;;;;;7.07;4.20;;;;;;;;;;5028516;28;20168;-50
2022/06/10 06:25:26;;;;;;;4.75;3.28;;;;;;;;;;5030489;28;20465;-48
2022/06/10 06:27:52;;;;;;;5.70;3.17;;;;;;;;;;5032314;28;20074;-50
2022/06/10 06:30:31;;;;;;;5.78;3.90;;;;;;;;;;5032389;28;20038;-49
2022/06/10 06:33:02;;;;;;;4.97;4.18;;;;;;;;;;5032533;28;20022;-61
2022/06/10 06:35:28;;;;;;;13.18;5.03;;;;;;;;;;5032445;28;20064;-49
2022/06/10 06:37:54;;;;;;;12.95;3.70;;;;;;;;;;5035854;28;20029;-60
2022/06/10 06:40:21;;;;;;;4.82;3.80;;;;;;;;;;5035826;28;20043;-61
2022/06/10 06:42:47;;;;;;;8.48;4.88;;;;;;;;;;5036390;28;20110;-62
2022/06/10 06:45:13;;;;;;;8.20;4.18;;;;;;;;;;5036159;28;20120;-57
2022/06/10 06:47:40;;;;;;;7.40;5.20;;;;;;;;;;5033923;28;20033;-55
2022/06/10 06:50:07;;;;;;;12.57;6.65;;;;;;;;;;5033285;28;20040;-60
2022/06/10 06:52:32;;;;;;;4.25;3.55;;;;;;;;;;5032996;28;20045;-61
2022/06/10 06:54:57;;;;;;;3.80;3.33;;;;;;;;;;5033197;28;20026;-53
2022/06/10 06:57:25;;;;;;;3.72;3.28;;;;;;;;;;5034978;28;20029;-53
2022/06/10 07:00:02;;;;;;;9.18;3.60;;;;;;;;;;5017777;28;20041;-61
2022/06/10 07:02:27;;;;;;;12.40;6.95;;;;;;;;;;5016770;28;20496;-50
2022/06/10 07:04:53;;;;;;;10.27;4.55;;;;;;;;;;5032871;28;20030;-52
2022/06/10 07:07:18;;;;;;;13.55;6.90;;;;;;;;;;5032967;28;20071;-52
2022/06/10 07:09:43;;;;;;;7.30;3.67;;;;;;;;;;5033113;28;20068;-48
2022/06/10 07:12:09;;;;;;;12.63;4.60;;;;;;;;;;5032924;28;20029;-53
2022/06/10 07:14:34;;;;;;;5.38;3.60;;;;;;;;;;5032542;28;20432;-50
2022/06/10 07:17:00;;;;;;;4.93;4.18;;;;;;;;;;5032402;28;20025;-51
2022/06/10 07:19:25;;;;;;;4.93;2.53;;;;;;;;;;5033211;28;20057;-49
2022/06/10 07:21:51;;;;;;;9.05;4.50;;;;;;;;;;5032640;28;20030;-52
2022/06/10 07:24:16;;;;;;;11.05;5.57;;;;;;;;;;5032531;28;20034;-53
2022/06/10 07:26:41;;;;;;;8.77;4.05;;;;;;;;;;5032501;28;20071;-52
2022/06/10 07:29:10;;;;;;;9.25;2.60;;;;;;;;;;5032228;28;20086;-52
2022/06/10 07:31:39;;;;;;;6.20;3.42;;;;;;;;;;5032489;28;20034;-50
2022/06/10 07:34:05;;;;;;;11.15;4.53;;;;;;;;;;5032467;28;20025;-52
2022/06/10 07:36:31;;;;;;;5.93;4.20;;;;;;;;;;5032385;28;20032;-53
2022/06/10 07:38:56;;;;;;;9.65;4.30;;;;;;;;;;5032290;28;20037;-52
2022/06/10 07:44:06;;;;;;;6.55;4.00;;;;;;;;;;5032071;28;20558;-54
2022/06/10 07:46:31;;;;;;;9.75;4.10;;;;;;;;;;5014044;28;20037;-55
2022/06/10 07:48:57;;;;;;;9.68;5.30;;;;;;;;;;5031168;28;20052;-59
2022/06/10 07:51:23;;;;;;;11.02;5.07;;;;;;;;;;5031925;28;20031;-56
2022/06/10 07:53:49;;;;;;;8.13;4.32;;;;;;;;;;5031963;28;20029;-54
2022/06/10 07:56:16;;;;;;;8.70;3.83;;;;;;;;;;5031847;28;20532;-55
2022/06/10 07:58:43;;;;;;;9.32;3.70;;;;;;;;;;5031815;28;20117;-56
2022/06/10 08:01:09;;;;;;;3.90;3.00;;;;;;;;;;5031869;28;20030;-56
2022/06/10 08:03:34;;;;;;;5.78;3.15;;;;;;;;;;5031850;28;20041;-55
2022/06/10 08:06:01;;;;;;;5.00;2.83;;;;;;;;;;5031723;28;20029;-53
2022/06/10 08:08:26;;;;;;;4.43;2.80;;;;;;;;;;5031834;28;20061;-53
2022/06/10 08:10:52;;;;;;;3.42;3.00;;;;;;;;;;5031825;28;20056;-53
2022/06/10 08:13:18;;;;;;;5.90;2.95;;;;;;;;;;5031908;28;20025;-58
2022/06/10 08:15:44;;;;;;;10.93;3.40;;;;;;;;;;5031597;28;20057;-54
2022/06/10 08:18:12;;;;;;;5.53;2.70;;;;;;;;;;5031617;28;20043;-57
2022/06/10 08:23:26;;;;;;;7.13;3.38;;;;;;;;;;5031643;28;20095;-51
2022/06/10 08:25:54;;;;;;;8.05;5.00;;;;;;;;;;5031313;28;20033;-56
2022/06/10 08:28:20;;;;;;;2.75;2.53;;;;;;;;;;5031571;28;20393;-53
2022/06/10 08:30:46;;;;;;;7.50;3.70;;;;;;;;;;5031181;28;20044;-54
2022/06/10 08:33:11;;;;;;;6.80;3.47;;;;;;;;;;5031382;28;20033;-59
2022/06/10 08:35:38;;;;;;;8.05;4.22;;;;;;;;;;5031339;28;20025;-58
2022/06/10 08:38:08;;;;;;;4.80;3.30;;;;;;;;;;5030946;28;20640;-57
2022/06/10 08:40:55;;;;;;;4.07;2.80;;;;;;;;;;5030924;28;20120;-58
2022/06/10 08:43:27;;;;;;;13.75;4.22;;;;;;;;;;5031153;28;20060;-54
2022/06/10 08:46:09;;;;;;;9.93;5.30;;;;;;;;;;5030957;28;20021;-54
2022/06/10 08:49:02;;;;;;;3.75;3.08;;;;;;;;;;5031191;28;20032;-57
2022/06/10 08:51:50;;;;;;;7.72;4.35;;;;;;;;;;5030660;28;20025;-52
2022/06/10 08:54:30;;;;;;;9.53;5.10;;;;;;;;;;4984544;28;20041;-59
2022/06/10 08:56:59;;;;;;;4.80;2.80;;;;;;;;;;5031000;28;20611;-57
2022/06/10 08:59:30;;;;;;;;;;;;;;;;;;5031036;28;20076;-56
2022/06/10 09:02:12;;;;;;;11.30;3.13;;;;;;;;;;5030916;28;20524;-52
2022/06/10 09:05:27;;;;;;;4.55;3.33;;;;;;;;;;5030849;28;20022;-60
2022/06/10 09:07:55;;;;;;;7.53;2.95;;;;;;;;;;5017069;28;20037;-51
2022/06/10 09:10:46;;;;;;;4.88;3.28;;;;;;;;;;5030784;28;20064;-54
2022/06/10 09:13:35;;;;;;;2.30;2.10;;;;;;;;;;5030344;28;20404;-56
2022/06/10 09:16:24;;;;;;;5.80;2.78;;;;;;;;;;5030253;28;20478;-60
2022/06/10 09:18:49;;;;;;;4.53;2.55;;;;;;;;;;5030169;28;20025;-56
2022/06/10 09:21:28;;;;;;;6.65;4.13;;;;;;;;;;5030162;28;20037;-57
2022/06/10 09:23:57;;;;;;;2.67;2.20;;;;;;;;;;5030224;28;20036;-55
2022/06/10 09:26:30;;;;;;;9.55;2.80;;;;;;;;;;5030507;28;20092;-54
2022/06/10 09:28:56;;;;;;;8.43;2.97;;;;;;;;;;5030335;28;20104;-54
2022/06/10 09:31:33;;;;;;;3.03;2.72;;;;;;;;;;5030368;28;20104;-56
2022/06/10 09:34:16;;;;;;;5.07;3.83;;;;;;;;;;5030144;28;20034;-53
2022/06/10 09:36:41;;;;;;;16.05;5.43;;;;;;;;;;5030317;28;20030;-56
2022/06/10 09:42:35;;;;;;;7.07;3.90;;;;;;;;;;5029861;28;20107;-55
2022/06/10 09:45:10;;;;;;;5.85;3.65;;;;;;;;;;5030162;28;20428;-55
2022/06/10 09:47:55;;;;;;;2.53;1.70;;;;;;;;;;5030208;28;20036;-53
2022/06/10 09:50:31;;;;;;;5.20;2.30;;;;;;;;;;5029980;28;20036;-57
2022/06/10 09:53:15;;;;;;;7.15;2.80;;;;;;;;;;5029493;28;20040;-52
2022/06/10 09:55:59;;;;;;;8.73;3.05;;;;;;;;;;5029981;28;20449;-55
2022/06/10 09:58:44;;;;;;;8.52;4.75;;;;;;;;;;5030029;28;20034;-58
2022/06/10 10:01:32;;;;;;;1.60;1.50;;;;;;;;;;5029675;28;20645;-56
2022/06/10 10:04:19;;;;;;;6.50;2.70;;;;;;;;;;5029912;28;20087;-58
2022/06/10 10:07:03;;;;;;;2.22;2.03;;;;;;;;;;5029896;28;20034;-59
2022/06/10 10:09:31;;;;;;;2.30;2.10;;;;;;;;;;5029411;28;20033;-56
2022/06/10 10:12:08;;;;;;;2.53;2.33;;;;;;;;;;5029336;28;20030;-59
2022/06/10 10:14:57;;;;;;;4.10;2.58;;;;;;;;;;5029761;28;20709;-58
2022/06/10 10:17:47;;;;;;;5.82;2.80;;;;;;;;;;5029504;28;20041;-56
2022/06/10 10:20:40;;;;;;;3.72;2.30;;;;;;;;;;5029396;28;20037;-58
2022/06/10 10:23:30;;;;;;;4.07;2.42;;;;;;;;;;5029454;28;20064;-58
2022/06/10 10:25:56;;;;;;;3.55;2.80;;;;;;;;;;5029729;28;20022;-60
2022/06/10 10:28:34;;;;;;;5.13;2.75;;;;;;;;;;5029358;28;20441;-57
2022/06/10 10:31:19;;;;;;;7.47;2.90;;;;;;;;;;5029269;28;20496;-53
2022/06/10 10:33:45;;;;;;;3.25;2.80;;;;;;;;;;5029198;28;20033;-60
2022/06/10 10:36:23;;;;;;;3.38;2.58;;;;;;;;;;5029414;28;20037;-56
2022/06/10 10:38:50;;;;;;;4.55;2.88;;;;;;;;;;5013175;28;20033;-52
2022/06/10 10:41:29;;;;;;;5.60;3.20;;;;;;;;;;5029074;28;20045;-59
2022/06/10 10:44:01;;;;;;;3.40;2.80;;;;;;;;;;5029591;28;20080;-59
2022/06/10 10:46:38;;;;;;;5.65;3.53;;;;;;;;;;5029598;28;20120;-54
2022/06/10 10:49:20;;;;;;;3.58;3.05;;;;;;;;;;5029446;28;20032;-58
2022/06/10 10:51:49;;;;;;;5.88;3.60;;;;;;;;;;5029266;28;20691;-58
2022/06/10 10:54:34;;;;;;;4.80;3.28;;;;;;;;;;5011261;28;20025;-56
2022/06/10 10:57:01;;;;;;;13.93;5.13;;;;;;;;;;5029187;28;20021;-61
2022/06/10 10:59:32;;;;;;;7.07;3.05;;;;;;;;;;5028783;28;20115;-60
2022/06/10 11:01:58;;;;;;;2.67;2.47;;;;;;;;;;5029295;28;20060;-56
2022/06/10 11:04:36;;;;;;;6.55;3.78;;;;;;;;;;5029222;28;20469;-54
2022/06/10 11:07:14;;;;;;;8.27;3.15;;;;;;;;;;5029240;28;20025;-60
2022/06/10 11:09:51;;;;;;;5.13;3.55;;;;;;;;;;5029183;28;20029;-55
2022/06/10 11:12:20;;;;;;;5.03;3.20;;;;;;;;;;5028992;28;20041;-62
2022/06/10 11:14:49;;;;;;;7.22;3.40;;;;;;;;;;5029108;28;20440;-61
2022/06/10 11:17:22;;;;;;;5.60;3.60;;;;;;;;;;5028959;28;20489;-60
2022/06/10 11:19:59;;;;;;;9.13;5.13;;;;;;;;;;5028536;28;20481;-60
2022/06/10 11:22:29;;;;;;;5.82;2.72;;;;;;;;;;5029122;28;20052;-56
2022/06/10 11:25:04;;;;;;;10.57;4.85;;;;;;;;;;5032401;28;20030;-57
2022/06/10 11:27:39;;;;;;;10.88;5.88;;;;;;;;;;5032369;28;20163;-60
2022/06/10 11:30:10;;;;;;;7.03;3.30;;;;;;;;;;5032514;28;20510;-54
2022/06/10 11:32:47;;;;;;;7.28;3.20;;;;;;;;;;5032546;28;20033;-62
2022/06/10 11:35:33;;;;;;;9.57;4.90;;;;;;;;;;5032509;28;20029;-64
2022/06/10 11:38:03;;;;;;;8.45;4.28;;;;;;;;;;5033601;28;20496;-58
2022/06/10 11:40:37;;;;;;;4.80;3.80;;;;;;;;;;5032701;28;20045;-56
2022/06/10 11:43:18;;;;;;;5.70;4.30;;;;;;;;;;5033718;28;20021;-61
2022/06/10 11:45:51;;;;;;;11.65;6.75;;;;;;;;;;5033380;28;20087;-55
2022/06/10 11:48:28;;;;;;;10.18;3.90;;;;;;;;;;5033417;28;20036;-59
2022/06/10 11:51:02;;;;;;;8.77;3.67;;;;;;;;;;5033543;28;20117;-57
2022/06/10 11:53:46;;;;;;;8.30;4.38;;;;;;;;;;5033594;28;20038;-56
2022/06/10 12:02:02;;;;;;;7.78;3.80;;;;;;;;;;5033547;28;20044;-55
2022/06/10 12:04:33;;;;;;;6.55;3.60;;;;;;;;;;5032977;28;20040;-60
2022/06/10 12:07:04;;;;;;;5.15;3.30;;;;;;;;;;5033404;28;20025;-53
2022/06/10 12:09:38;;;;;;;12.20;3.42;;;;;;;;;;5033007;28;20036;-55
2022/06/10 12:12:13;;;;;;;7.45;3.33;;;;;;;;;;5033301;28;20108;-57
2022/06/10 12:14:38;;;;;;;10.75;3.85;;;;;;;;;;5032699;28;20033;-55
2022/06/10 12:17:25;;;;;;;17.25;6.10;;;;;;;;;;5032815;28;20491;-58
2022/06/10 12:20:05;;;;;;;6.90;3.60;;;;;;;;;;5031524;28;20044;-55
2022/06/10 12:22:33;;;;;;;8.50;3.80;;;;;;;;;;5033109;28;20105;-55
2022/06/10 12:24:58;;;;;;;8.18;4.28;;;;;;;;;;5032986;28;20021;-55
2022/06/10 12:27:36;;;;;;;6.75;4.53;;;;;;;;;;5032549;28;20488;-62
2022/06/10 12:30:11;;;;;;;5.82;3.88;;;;;;;;;;5032863;28;20029;-55
2022/06/10 12:32:43;;;;;;;5.78;3.13;;;;;;;;;;5032900;28;20067;-52
2022/06/10 12:35:11;;;;;;;8.18;4.25;;;;;;;;;;5032498;28;20032;-53
2022/06/10 12:37:49;;;;;;;8.60;3.55;;;;;;;;;;5032333;28;20033;-55
2022/06/10 12:40:36;;;;;;;4.25;3.22;;;;;;;;;;5032267;28;20069;-56
2022/06/10 12:43:06;;;;;;;14.55;3.92;;;;;;;;;;5032103;28;20045;-55
2022/06/10 12:45:37;;;;;;;8.55;3.80;;;;;;;;;;5032406;28;20711;-54
2022/06/10 12:48:13;;;;;;;11.63;5.75;;;;;;;;;;5032513;28;20438;-52
2022/06/10 12:50:49;;;;;;;10.75;3.80;;;;;;;;;;5032094;28;20037;-58
2022/06/10 12:53:28;;;;;;;8.55;3.10;;;;;;;;;;5032170;28;20596;-58
2022/06/10 12:55:59;;;;;;;7.43;4.03;;;;;;;;;;5032461;28;20032;-56
2022/06/10 12:58:39;;;;;;;4.57;2.75;;;;;;;;;;5032378;28;20037;-55
2022/06/10 13:01:22;;;;;;;4.20;3.13;;;;;;;;;;5032187;28;20120;-59
2022/06/10 13:03:58;;;;;;;4.25;3.20;;;;;;;;;;5032086;28;20112;-60
2022/06/10 13:06:31;;;;;;;8.50;4.15;;;;;;;;;;5032018;28;20542;-61
2022/06/10 13:09:12;;;;;;;15.68;3.55;;;;;;;;;;5031909;28;20095;-54
2022/06/10 13:11:52;;;;;;;8.45;3.92;;;;;;;;;;5032061;28;20030;-59
2022/06/10 13:14:30;;;;;;;4.85;2.95;;;;;;;;;;5031848;28;20091;-61
2022/06/10 13:16:58;;;;;;;7.03;3.60;;;;;;;;;;5031953;28;20048;-48
2022/06/10 13:19:36;;;;;;;7.72;2.92;;;;;;;;;;5031471;28;20029;-52
2022/06/10 13:22:35;;;;;;;8.57;3.70;;;;;;;;;;5031749;28;20053;-62
2022/06/10 13:25:00;;;;;;;;;;;;;;;;;;5003671;28;20127;-47
2022/06/10 13:27:39;;;;;;;2.63;2.43;;;;;;;;;;5031582;28;20012;-48
2022/06/10 13:30:33;;;;;;;6.57;3.05;;;;;;;;;;5031414;28;20045;-61
2022/06/10 13:33:10;;;;;;;5.18;3.75;;;;;;;;;;5031743;28;20028;-64
2022/06/10 13:35:43;;;;;;;4.13;3.08;;;;;;;;;;5031420;28;20465;-60
2022/06/10 13:38:19;;;;;;;5.03;3.60;;;;;;;;;;5031559;28;20071;-66
2022/06/10 13:40:50;;;;;;;7.63;3.60;;;;;;;;;;5030821;28;20140;-65
2022/06/10 13:43:28;;;;;;;6.10;3.58;;;;;;;;;;5030991;28;20033;-65
2022/06/10 13:45:54;;;;;;;8.73;3.92;;;;;;;;;;5030888;28;20101;-65
2022/06/10 13:48:25;;;;;;;4.25;3.70;;;;;;;;;;5030841;28;20488;-65
2022/06/10 13:53:28;;;;;;;3.40;3.05;;;;;;;;;;5031045;28;20026;-62
2022/06/10 13:56:00;;;;;;;4.70;3.50;;;;;;;;;;5031108;28;20037;-63
2022/06/10 13:58:29;;;;;;;8.55;3.20;;;;;;;;;;5031334;28;20404;-63
2022/06/10 14:00:58;;;;;;;6.00;3.20;;;;;;;;;;5031109;28;20049;-50
2022/06/10 14:03:30;;;;;;;4.85;2.92;;;;;;;;;;5031331;28;20619;-57
2022/06/10 14:06:14;;;;;;;15.93;3.75;;;;;;;;;;5030753;28;20030;-57
2022/06/10 14:09:09;;;;;;;4.68;3.33;;;;;;;;;;5013169;28;20029;-60
2022/06/10 14:11:38;;;;;;;8.25;3.22;;;;;;;;;;5031091;28;20057;-60
2022/06/10 14:14:09;;;;;;;5.38;3.30;;;;;;;;;;5030906;28;20029;-60
2022/06/10 14:16:37;;;;;;;4.63;3.20;;;;;;;;;;5030558;28;20032;-61
2022/06/10 14:19:06;;;;;;;3.80;2.83;;;;;;;;;;5030490;28;20029;-62
2022/06/10 14:21:33;;;;;;;4.20;2.80;;;;;;;;;;5031111;28;20541;-57
2022/06/10 14:24:04;;;;;;;3.90;2.75;;;;;;;;;;5032088;28;20036;-59
2022/06/10 14:26:32;;;;;;;3.60;2.42;;;;;;;;;;5031429;28;20041;-58
2022/06/10 14:29:18;;;;;;;5.22;2.78;;;;;;;;;;5031196;28;20381;-56
2022/06/10 14:31:48;;;;;;;4.25;2.83;;;;;;;;;;5030675;28;20030;-58
2022/06/10 14:34:20;;;;;;;3.95;2.40;;;;;;;;;;5030916;28;20104;-57
2022/06/10 14:37:04;;;;;;;3.45;2.42;;;;;;;;;;5030958;28;20134;-56
2022/06/10 14:39:32;;;;;;;4.05;2.78;;;;;;;;;;5030934;28;20373;-55
2022/06/10 14:42:00;;;;;;;3.10;2.20;;;;;;;;;;5030341;28;20110;-62
2022/06/10 14:44:50;;;;;;;4.53;2.35;;;;;;;;;;5030851;28;20377;-50
2022/06/10 14:47:22;;;;;;;;;;;;;;;;;;5030522;28;20537;-59
2022/06/10 14:49:55;;;;;;;6.68;2.88;;;;;;;;;;5030730;28;20281;-57
2022/06/10 14:52:31;;;;;;;4.00;2.63;;;;;;;;;;5030208;28;20033;-60
2022/06/10 14:54:57;;;;;;;3.72;2.40;;;;;;;;;;5030261;28;20026;-57
2022/06/10 14:57:26;;;;;;;4.43;2.72;;;;;;;;;;5031707;28;20397;-54
2022/06/10 14:59:52;;;;;;;4.25;3.00;;;;;;;;;;5034507;28;20033;-55
2022/06/10 15:02:18;;;;;;;3.42;2.72;;;;;;;;;;5034413;28;20029;-52
2022/06/10 15:07:27;;;;;;;6.05;2.78;;;;;;;;;;5034362;28;20044;-53
2022/06/10 15:09:54;;;;;;;5.63;3.00;;;;;;;;;;5034334;28;20612;-58
2022/06/10 15:12:24;;;;;;;5.18;3.05;;;;;;;;;;5034279;28;20067;-52
2022/06/10 15:14:50;;;;;;;8.27;4.20;;;;;;;;;;5034196;28;20044;-61
2022/06/10 15:17:18;;;;;;;5.93;3.33;;;;;;;;;;5034242;28;20033;-61
2022/06/10 15:19:44;;;;;;;8.63;3.50;;;;;;;;;;5034059;28;20040;-62
2022/06/10 15:22:19;;;;;;;9.00;3.80;;;;;;;;;;5033801;28;20025;-61
2022/06/10 15:24:45;;;;;;;3.70;3.20;;;;;;;;;;5034094;28;20100;-58
2022/06/10 15:27:10;;;;;;;6.18;3.70;;;;;;;;;;5034051;28;20056;-60
2022/06/10 15:29:36;;;;;;;5.03;3.72;;;;;;;;;;5034096;28;20431;-61
2022/06/10 15:32:02;;;;;;;7.55;3.78;;;;;;;;;;5033687;28;20088;-60
2022/06/10 15:34:27;;;;;;;7.03;3.58;;;;;;;;;;5033778;28;20178;-57
2022/06/10 15:42:26;;;;;;;3.50;3.03;;;;;;;;;;5033471;28;20051;-53
2022/06/10 15:44:51;;;;;;;3.33;3.03;;;;;;;;;;5033893;28;20025;-57